Port San Antonio, Texas
Current Conditions -  °F | °C
As of 1:08 AM on Friday 19 Dec 2014 (Local Time) from KSKF Reporting Station
Light Rain Light Rain  
Wind Chill: 55°   Ceiling: 600
Heat Index: 55°   Visibility: 9mi
Dew Point: 55°   Wind: 9mph
Humidity: 100%   Direction: 10°N
Pressure: 30.02"   Gusts: NA
Location:  29.38°N, 98.58°W
Report Text: KSKF 190708Z AUTO 01008KT 9SM -RA BKN006 OVC012 13/13 A3002 RMK AO2 CIG 006V011 BKN V SCT $
Loading
Personal Weather Stations






























Interactive Weather Map New forecast layout! Learn more

10-Day Weather Forecast

Advertisements
Track Severe Weather on mobile